Time;durP1;ratioP1;P1;durP2;ratioP2;P2;SDS_P1;SDS_P2;PMS_P1;PMS_P2;Temp;Humidity;BMP_temperature;BMP_pressure;BME280_temperature;BME280_humidity;BME280_pressure;Samples;Min_cycle;Max_cycle;Signal;HPM_P1;HPM_P2
2022/02/19 00:02:12;;;;;;;7.38;1.70;;;;;;;;;;5041213;28;20210;-81
2022/02/19 00:04:38;;;;;;;2.80;1.83;;;;;;;;;;5027653;28;20258;-80
2022/02/19 00:07:07;;;;;;;4.20;1.10;;;;;;;;;;5024429;28;20199;-80
2022/02/19 00:09:33;;;;;;;9.60;1.73;;;;;;;;;;5026764;28;20210;-78
2022/02/19 00:11:59;;;;;;;4.13;1.40;;;;;;;;;;5030006;28;20182;-80
2022/02/19 00:14:25;;;;;;;14.88;2.28;;;;;;;;;;5027076;28;20179;-79
2022/02/19 00:16:51;;;;;;;6.50;1.40;;;;;;;;;;5033247;28;20602;-81
2022/02/19 00:19:19;;;;;;;7.20;2.15;;;;;;;;;;5019943;28;20311;-80
2022/02/19 00:21:45;;;;;;;6.10;2.05;;;;;;;;;;5024565;28;20203;-80
2022/02/19 00:24:11;;;;;;;5.95;2.13;;;;;;;;;;5023574;28;20174;-83
2022/02/19 00:26:37;;;;;;;6.60;2.15;;;;;;;;;;5023682;28;20202;-81
2022/02/19 00:29:04;;;;;;;5.23;2.20;;;;;;;;;;5023458;28;20205;-77
2022/02/19 00:31:30;;;;;;;5.05;1.50;;;;;;;;;;5017025;28;20497;-79
2022/02/19 00:33:56;;;;;;;6.18;1.85;;;;;;;;;;5044858;28;20221;-80
2022/02/19 00:36:22;;;;;;;11.77;1.55;;;;;;;;;;5027175;28;20185;-80
2022/02/19 00:38:48;;;;;;;6.75;1.70;;;;;;;;;;5023689;28;20250;-82
2022/02/19 00:41:16;;;;;;;3.13;2.13;;;;;;;;;;5039663;28;20181;-81
2022/02/19 00:43:42;;;;;;;4.20;1.88;;;;;;;;;;5030939;28;20529;-78
2022/02/19 00:46:08;;;;;;;5.82;1.77;;;;;;;;;;5032107;28;20601;-81
2022/02/19 00:48:35;;;;;;;3.35;1.77;;;;;;;;;;5039277;28;20178;-80
2022/02/19 00:51:01;;;;;;;10.15;1.90;;;;;;;;;;5039838;28;20220;-80
2022/02/19 00:53:27;;;;;;;8.52;2.38;;;;;;;;;;5030856;28;20181;-81
2022/02/19 00:55:53;;;;;;;2.90;1.30;;;;;;;;;;5022804;28;20187;-80
2022/02/19 00:58:19;;;;;;;8.38;1.45;;;;;;;;;;5025172;28;20198;-80
2022/02/19 01:00:45;;;;;;;5.72;1.85;;;;;;;;;;5030671;28;20179;-82
2022/02/19 01:03:11;;;;;;;5.00;1.45;;;;;;;;;;5023841;28;20186;-80
2022/02/19 01:05:37;;;;;;;10.07;2.95;;;;;;;;;;5043511;28;20214;-81
2022/02/19 01:08:03;;;;;;;6.15;1.60;;;;;;;;;;5031727;28;20188;-81
2022/02/19 01:10:30;;;;;;;4.78;1.88;;;;;;;;;;5013193;28;20238;-81
2022/02/19 01:12:55;;;;;;;2.35;1.17;;;;;;;;;;5023489;28;20198;-81
2022/02/19 01:15:23;;;;;;;3.78;2.17;;;;;;;;;;5022097;28;20186;-80
2022/02/19 01:17:49;;;;;;;3.58;1.45;;;;;;;;;;5036718;28;20238;-83
2022/02/19 01:20:15;;;;;;;10.68;2.20;;;;;;;;;;5043237;28;20187;-81
2022/02/19 01:22:45;;;;;;;5.05;1.67;;;;;;;;;;5023519;28;20251;-82
2022/02/19 01:25:11;;;;;;;4.95;1.25;;;;;;;;;;5039159;28;20255;-80
2022/02/19 01:27:37;;;;;;;6.13;1.70;;;;;;;;;;5022610;28;20198;-79
2022/02/19 01:30:05;;;;;;;10.13;2.30;;;;;;;;;;5052155;28;20213;-82
2022/02/19 01:32:31;;;;;;;6.30;1.52;;;;;;;;;;5006123;28;20167;-80
2022/02/19 01:34:58;;;;;;;6.30;1.73;;;;;;;;;;5027057;28;20193;-80
2022/02/19 01:37:24;;;;;;;5.15;1.85;;;;;;;;;;5012444;28;20179;-81
2022/02/19 01:39:50;;;;;;;2.50;1.30;;;;;;;;;;5022901;28;20235;-81
2022/02/19 01:42:16;;;;;;;11.60;1.75;;;;;;;;;;5032041;28;20220;-79
2022/02/19 01:44:44;;;;;;;3.45;1.20;;;;;;;;;;5024998;28;20186;-80
2022/02/19 01:47:10;;;;;;;4.88;1.75;;;;;;;;;;5042727;28;20186;-81
2022/02/19 01:49:36;;;;;;;12.90;2.75;;;;;;;;;;5016064;28;20630;-80
2022/02/19 01:52:03;;;;;;;7.35;1.58;;;;;;;;;;5028062;28;20236;-79
2022/02/19 01:54:29;;;;;;;8.20;1.73;;;;;;;;;;5023092;28;20179;-81
2022/02/19 01:56:55;;;;;;;5.18;1.42;;;;;;;;;;5022387;28;20213;-80
2022/02/19 01:59:21;;;;;;;3.80;1.90;;;;;;;;;;5042536;28;20589;-80
2022/02/19 02:01:47;;;;;;;4.38;1.80;;;;;;;;;;5022509;28;20449;-82
2022/02/19 02:04:13;;;;;;;4.80;1.45;;;;;;;;;;5026288;28;20190;-79
2022/02/19 02:06:44;;;;;;;10.13;2.10;;;;;;;;;;5030761;28;20186;-79
2022/02/19 02:09:10;;;;;;;6.38;1.98;;;;;;;;;;5034826;28;20205;-79
2022/02/19 02:11:36;;;;;;;8.00;2.35;;;;;;;;;;5023443;28;20174;-81
2022/02/19 02:14:03;;;;;;;3.45;1.58;;;;;;;;;;5011905;28;20667;-80
2022/02/19 02:16:39;;;;;;;4.00;2.40;;;;;;;;;;5025606;28;20189;-80
2022/02/19 02:19:05;;;;;;;5.30;1.52;;;;;;;;;;5022004;28;20214;-80
2022/02/19 02:21:31;;;;;;;3.58;2.05;;;;;;;;;;5032597;28;20186;-80
2022/02/19 02:23:57;;;;;;;3.45;1.30;;;;;;;;;;5022253;28;20179;-80
2022/02/19 02:26:24;;;;;;;7.28;1.98;;;;;;;;;;5035788;28;20654;-80
2022/02/19 02:28:50;;;;;;;7.13;1.80;;;;;;;;;;5026663;28;20210;-80
2022/02/19 02:31:17;;;;;;;4.28;1.98;;;;;;;;;;5039413;28;20230;-78
2022/02/19 02:33:43;;;;;;;5.18;2.00;;;;;;;;;;5029423;28;20190;-79
2022/02/19 02:36:09;;;;;;;6.63;1.50;;;;;;;;;;5026332;28;20221;-78
2022/02/19 02:38:35;;;;;;;7.05;1.33;;;;;;;;;;5014265;28;20253;-81
2022/02/19 02:41:01;;;;;;;4.20;1.30;;;;;;;;;;5017337;28;20829;-81
2022/02/19 02:43:27;;;;;;;5.32;1.50;;;;;;;;;;5015255;28;20187;-80
2022/02/19 02:45:53;;;;;;;9.15;1.50;;;;;;;;;;5033364;28;20254;-80
2022/02/19 02:48:19;;;;;;;3.45;1.65;;;;;;;;;;5026708;28;20185;-81
2022/02/19 02:50:46;;;;;;;3.30;1.17;;;;;;;;;;5022056;28;20233;-80
2022/02/19 02:53:12;;;;;;;5.57;1.60;;;;;;;;;;5033885;28;20175;-80
2022/02/19 02:55:38;;;;;;;4.72;1.90;;;;;;;;;;5022228;28;20195;-82
2022/02/19 02:58:04;;;;;;;5.72;1.75;;;;;;;;;;5025323;28;20274;-81
2022/02/19 03:00:30;;;;;;;5.68;1.42;;;;;;;;;;5024870;28;20550;-82
2022/02/19 03:02:56;;;;;;;6.45;1.50;;;;;;;;;;5030366;28;20214;-80
2022/02/19 03:05:22;;;;;;;7.10;1.83;;;;;;;;;;5027615;28;20679;-80
2022/02/19 03:07:48;;;;;;;5.88;1.40;;;;;;;;;;5022518;28;20186;-81
2022/02/19 03:10:16;;;;;;;5.70;1.27;;;;;;;;;;5021065;28;20203;-84
2022/02/19 03:12:48;;;;;;;7.90;1.70;;;;;;;;;;5014593;28;20182;-81
2022/02/19 03:15:18;;;;;;;7.88;1.90;;;;;;;;;;5043497;28;20175;-80
2022/02/19 03:17:45;;;;;;;10.23;1.98;;;;;;;;;;5006633;28;20171;-79
2022/02/19 03:20:14;;;;;;;6.68;1.52;;;;;;;;;;5055338;28;20170;-81
2022/02/19 03:22:39;;;;;;;3.35;1.02;;;;;;;;;;5024413;28;20190;-80
2022/02/19 03:25:06;;;;;;;4.47;1.40;;;;;;;;;;5023608;28;20253;-78
2022/02/19 03:27:32;;;;;;;4.32;1.63;;;;;;;;;;5025651;28;20296;-79
2022/02/19 03:29:58;;;;;;;6.47;2.15;;;;;;;;;;5010109;28;20203;-79
2022/02/19 03:32:24;;;;;;;5.00;1.50;;;;;;;;;;5038552;28;20178;-80
2022/02/19 03:34:50;;;;;;;4.78;1.38;;;;;;;;;;5026387;28;20220;-82
2022/02/19 03:37:16;;;;;;;6.45;1.63;;;;;;;;;;5035850;28;20672;-81
2022/02/19 03:39:42;;;;;;;5.57;2.20;;;;;;;;;;5027255;28;20222;-81
2022/02/19 03:42:08;;;;;;;4.45;1.30;;;;;;;;;;5009684;28;20460;-80
2022/02/19 03:44:34;;;;;;;5.00;1.50;;;;;;;;;;5006893;28;20178;-80
2022/02/19 03:47:00;;;;;;;3.43;1.43;;;;;;;;;;5012952;28;20211;-82
2022/02/19 03:49:26;;;;;;;4.03;1.63;;;;;;;;;;5029225;28;20881;-81
2022/02/19 03:51:53;;;;;;;4.90;2.00;;;;;;;;;;5039126;28;20258;-79
2022/02/19 03:54:19;;;;;;;10.35;2.22;;;;;;;;;;5050793;28;20171;-81
2022/02/19 03:56:45;;;;;;;4.55;1.40;;;;;;;;;;5051374;28;20184;-80
2022/02/19 03:59:14;;;;;;;6.80;2.25;;;;;;;;;;5028898;28;20183;-80
2022/02/19 04:01:40;;;;;;;7.97;1.60;;;;;;;;;;5028680;28;20203;-80
2022/02/19 04:04:06;;;;;;;4.93;1.88;;;;;;;;;;5028771;28;20183;-79
2022/02/19 04:06:32;;;;;;;4.65;1.48;;;;;;;;;;5035058;28;20675;-81
2022/02/19 04:08:58;;;;;;;8.30;1.48;;;;;;;;;;5008594;28;20175;-82
2022/02/19 04:11:24;;;;;;;5.65;2.10;;;;;;;;;;5027358;28;20822;-79
2022/02/19 04:13:50;;;;;;;9.48;1.70;;;;;;;;;;5030584;28;20823;-81
2022/02/19 04:16:16;;;;;;;5.32;1.38;;;;;;;;;;5014415;28;20191;-79
2022/02/19 04:18:42;;;;;;;5.82;2.20;;;;;;;;;;5032193;28;20537;-80
2022/02/19 04:21:08;;;;;;;9.13;1.58;;;;;;;;;;5040097;28;20206;-79
2022/02/19 04:23:35;;;;;;;5.20;1.80;;;;;;;;;;5018511;28;20190;-79
2022/02/19 04:26:01;;;;;;;6.22;1.50;;;;;;;;;;5023470;28;20194;-79
2022/02/19 04:28:27;;;;;;;3.45;1.50;;;;;;;;;;5028221;28;20228;-81
2022/02/19 04:30:54;;;;;;;4.18;1.67;;;;;;;;;;5038145;28;20217;-79
2022/02/19 04:33:20;;;;;;;6.30;2.63;;;;;;;;;;5013553;28;20193;-81
2022/02/19 04:35:46;;;;;;;7.85;1.77;;;;;;;;;;5023595;28;20180;-80
2022/02/19 04:38:12;;;;;;;3.65;1.50;;;;;;;;;;5042140;28;20218;-79
2022/02/19 04:40:38;;;;;;;7.13;1.35;;;;;;;;;;5026908;28;20190;-79
2022/02/19 04:43:04;;;;;;;13.45;2.55;;;;;;;;;;5041526;28;20204;-79
2022/02/19 04:45:31;;;;;;;4.45;1.42;;;;;;;;;;5038292;28;20182;-80
2022/02/19 04:47:57;;;;;;;4.60;1.40;;;;;;;;;;5022880;28;20232;-80
2022/02/19 04:50:23;;;;;;;4.20;1.80;;;;;;;;;;5026479;28;20245;-82
2022/02/19 04:52:49;;;;;;;5.68;1.40;;;;;;;;;;5015348;28;20187;-79
2022/02/19 04:55:16;;;;;;;9.75;1.88;;;;;;;;;;5013044;28;20183;-80
2022/02/19 04:57:43;;;;;;;4.50;1.65;;;;;;;;;;5031383;28;20259;-79
2022/02/19 05:00:11;;;;;;;5.55;2.35;;;;;;;;;;5023819;28;20185;-80
2022/02/19 05:02:37;;;;;;;5.30;1.60;;;;;;;;;;5022475;28;20186;-79
2022/02/19 05:05:03;;;;;;;4.20;1.55;;;;;;;;;;5023959;28;20190;-79
2022/02/19 05:07:29;;;;;;;8.15;2.17;;;;;;;;;;5032265;28;20743;-79
2022/02/19 05:09:55;;;;;;;6.88;2.05;;;;;;;;;;5022352;28;20258;-79
2022/02/19 05:12:21;;;;;;;5.97;1.90;;;;;;;;;;5023926;28;20221;-79
2022/02/19 05:14:47;;;;;;;4.20;1.35;;;;;;;;;;5039362;28;20185;-79
2022/02/19 05:17:13;;;;;;;2.80;1.05;;;;;;;;;;5025749;28;20608;-79
2022/02/19 05:19:39;;;;;;;2.92;1.50;;;;;;;;;;5013465;28;20263;-79
2022/02/19 05:22:05;;;;;;;7.30;2.00;;;;;;;;;;5022685;28;20207;-79
2022/02/19 05:24:31;;;;;;;11.02;1.80;;;;;;;;;;5025439;28;20182;-80
2022/02/19 05:26:56;;;;;;;6.10;3.33;;;;;;;;;;5021840;28;20184;-80
2022/02/19 05:29:22;;;;;;;5.40;1.60;;;;;;;;;;5039183;28;20484;-80
2022/02/19 05:31:48;;;;;;;2.75;1.60;;;;;;;;;;5022513;28;20204;-80
2022/02/19 05:34:14;;;;;;;10.38;2.25;;;;;;;;;;5021680;28;20294;-81
2022/02/19 05:36:40;;;;;;;6.15;1.70;;;;;;;;;;5011405;28;20201;-80
2022/02/19 05:39:06;;;;;;;3.75;1.95;;;;;;;;;;5032899;28;20224;-81
2022/02/19 05:41:32;;;;;;;4.93;1.70;;;;;;;;;;5009603;28;20179;-79
2022/02/19 05:44:00;;;;;;;7.05;2.28;;;;;;;;;;5040917;28;20182;-79
2022/02/19 05:46:26;;;;;;;2.47;1.10;;;;;;;;;;5026485;28;20194;-81
2022/02/19 05:48:52;;;;;;;2.92;1.10;;;;;;;;;;5017632;28;20178;-81
2022/02/19 05:51:18;;;;;;;8.05;1.60;;;;;;;;;;5008594;28;20224;-81
2022/02/19 05:53:46;;;;;;;5.05;1.45;;;;;;;;;;5022354;28;20179;-79
2022/02/19 05:56:12;;;;;;;3.00;1.52;;;;;;;;;;5038713;28;20269;-79
2022/02/19 05:58:38;;;;;;;7.60;1.65;;;;;;;;;;5015348;28;20683;-79
2022/02/19 06:01:04;;;;;;;5.15;1.60;;;;;;;;;;5028688;28;20254;-80
2022/02/19 06:03:30;;;;;;;4.65;1.88;;;;;;;;;;5024370;28;20186;-79
2022/02/19 06:05:56;;;;;;;4.90;1.40;;;;;;;;;;5030642;28;20190;-79
2022/02/19 06:08:22;;;;;;;4.80;1.60;;;;;;;;;;5022307;28;20180;-79
2022/02/19 06:10:48;;;;;;;4.82;1.45;;;;;;;;;;5044656;28;20209;-80
2022/02/19 06:13:14;;;;;;;6.63;1.38;;;;;;;;;;5028553;28;20270;-78
2022/02/19 06:15:40;;;;;;;5.20;1.80;;;;;;;;;;5038701;28;20190;-80
2022/02/19 06:18:06;;;;;;;7.38;2.05;;;;;;;;;;5022144;28;20229;-80
2022/02/19 06:20:32;;;;;;;8.75;1.98;;;;;;;;;;5028384;28;20184;-78
2022/02/19 06:22:59;;;;;;;5.47;2.05;;;;;;;;;;5022649;28;20210;-81
2022/02/19 06:25:25;;;;;;;2.80;1.85;;;;;;;;;;5017247;28;20202;-81
2022/02/19 06:27:51;;;;;;;8.10;1.45;;;;;;;;;;5026332;28;20191;-80
2022/02/19 06:30:17;;;;;;;6.88;1.80;;;;;;;;;;5007785;28;20210;-79
2022/02/19 06:32:43;;;;;;;4.32;1.63;;;;;;;;;;5007268;28;20624;-79
2022/02/19 06:35:10;;;;;;;7.43;2.45;;;;;;;;;;5017920;28;20174;-82
2022/02/19 06:37:41;;;;;;;12.18;1.80;;;;;;;;;;5020793;28;20245;-81
2022/02/19 06:40:08;;;;;;;6.15;1.75;;;;;;;;;;5022014;28;20225;-79
2022/02/19 06:42:34;;;;;;;4.63;1.80;;;;;;;;;;5037664;28;20198;-79
2022/02/19 06:45:00;;;;;;;7.53;2.30;;;;;;;;;;5021688;28;20190;-80
2022/02/19 06:47:26;;;;;;;5.03;1.85;;;;;;;;;;5024235;28;20211;-79
2022/02/19 06:49:52;;;;;;;9.40;2.60;;;;;;;;;;5022179;28;20268;-81
2022/02/19 06:52:18;;;;;;;5.57;2.13;;;;;;;;;;5022229;28;20191;-82
2022/02/19 06:54:44;;;;;;;5.65;1.58;;;;;;;;;;5045313;28;20511;-81
2022/02/19 06:57:14;;;;;;;8.60;1.40;;;;;;;;;;5037240;28;20178;-78
2022/02/19 06:59:40;;;;;;;13.70;1.77;;;;;;;;;;5035393;28;20193;-80
2022/02/19 07:02:06;;;;;;;3.10;1.88;;;;;;;;;;5030974;28;20206;-79
2022/02/19 07:04:33;;;;;;;3.90;1.50;;;;;;;;;;5027097;28;20186;-79
2022/02/19 07:06:59;;;;;;;4.55;1.73;;;;;;;;;;5029030;28;20182;-80
2022/02/19 07:09:25;;;;;;;4.88;1.60;;;;;;;;;;5035613;28;20194;-81
2022/02/19 07:11:54;;;;;;;7.80;1.98;;;;;;;;;;5036055;28;20179;-80
2022/02/19 07:14:20;;;;;;;8.02;1.80;;;;;;;;;;5037314;28;20178;-80
2022/02/19 07:16:46;;;;;;;4.95;1.10;;;;;;;;;;5018827;28;20197;-79
2022/02/19 07:19:12;;;;;;;7.15;1.65;;;;;;;;;;5029717;28;20179;-79
2022/02/19 07:21:38;;;;;;;5.18;2.05;;;;;;;;;;5024467;28;20209;-79
2022/02/19 07:24:05;;;;;;;3.55;1.55;;;;;;;;;;5025652;28;20175;-79
2022/02/19 07:26:31;;;;;;;6.82;2.83;;;;;;;;;;5061217;28;20273;-80
2022/02/19 07:28:57;;;;;;;6.30;1.50;;;;;;;;;;5030395;28;20186;-78
2022/02/19 07:31:23;;;;;;;4.35;2.28;;;;;;;;;;5028810;28;20209;-80
2022/02/19 07:33:49;;;;;;;8.27;2.13;;;;;;;;;;5032685;28;20183;-82
2022/02/19 07:36:15;;;;;;;4.18;1.77;;;;;;;;;;5049765;28;20179;-80
2022/02/19 07:38:41;;;;;;;7.78;2.25;;;;;;;;;;5041767;28;20221;-79
2022/02/19 07:41:07;;;;;;;4.05;1.40;;;;;;;;;;5014816;28;20237;-79
2022/02/19 07:43:33;;;;;;;3.30;1.95;;;;;;;;;;5032978;28;20194;-79
2022/02/19 07:46:00;;;;;;;5.25;1.98;;;;;;;;;;5019604;28;20199;-80
2022/02/19 07:48:26;;;;;;;9.10;2.00;;;;;;;;;;5042853;28;20538;-79
2022/02/19 07:59:05;;;;;;;4.32;1.55;;;;;;;;;;5016183;28;20238;-81
2022/02/19 08:01:31;;;;;;;2.20;1.40;;;;;;;;;;5039963;28;20189;-81
2022/02/19 08:03:57;;;;;;;8.43;1.73;;;;;;;;;;5032893;28;20190;-81
2022/02/19 08:06:23;;;;;;;5.47;3.00;;;;;;;;;;5024223;28;20206;-79
2022/02/19 08:08:49;;;;;;;6.13;1.80;;;;;;;;;;5023803;28;20433;-80
2022/02/19 08:11:16;;;;;;;7.05;2.42;;;;;;;;;;5055594;28;20202;-80
2022/02/19 08:13:42;;;;;;;4.95;1.55;;;;;;;;;;5020171;28;20333;-79
2022/02/19 08:16:08;;;;;;;10.20;2.20;;;;;;;;;;5020136;28;20183;-80
2022/02/19 08:18:34;;;;;;;12.20;2.15;;;;;;;;;;5052618;28;20583;-81
2022/02/19 08:21:00;;;;;;;6.15;1.60;;;;;;;;;;5038392;28;20186;-78
2022/02/19 08:23:26;;;;;;;7.93;2.15;;;;;;;;;;5036388;28;20182;-80
2022/02/19 08:25:53;;;;;;;4.47;1.73;;;;;;;;;;5036344;28;20228;-80
2022/02/19 08:28:20;;;;;;;4.07;1.50;;;;;;;;;;5035606;28;20183;-79
2022/02/19 08:30:46;;;;;;;6.53;2.40;;;;;;;;;;5033564;28;20245;-81
2022/02/19 08:33:12;;;;;;;6.45;1.40;;;;;;;;;;5050815;28;20217;-79
2022/02/19 08:35:39;;;;;;;8.40;1.65;;;;;;;;;;5046857;28;20178;-79
2022/02/19 08:38:07;;;;;;;6.55;2.10;;;;;;;;;;5034608;28;20206;-80
2022/02/19 08:40:33;;;;;;;9.18;1.50;;;;;;;;;;5017887;28;20187;-80
2022/02/19 08:42:59;;;;;;;4.45;1.58;;;;;;;;;;5034527;28;20197;-81
2022/02/19 08:45:25;;;;;;;6.57;1.80;;;;;;;;;;5038403;28;20681;-81
2022/02/19 08:47:53;;;;;;;4.68;1.75;;;;;;;;;;5022551;28;20224;-79
2022/02/19 08:50:20;;;;;;;5.50;1.48;;;;;;;;;;5032693;28;20269;-82
2022/02/19 08:52:48;;;;;;;5.07;1.50;;;;;;;;;;5032937;28;20242;-83
2022/02/19 08:55:14;;;;;;;5.47;1.95;;;;;;;;;;5018454;28;20262;-82
2022/02/19 08:57:40;;;;;;;4.38;1.83;;;;;;;;;;5036014;28;20183;-78
2022/02/19 09:00:08;;;;;;;6.53;1.90;;;;;;;;;;5037205;28;20248;-78
2022/02/19 09:02:34;;;;;;;6.70;1.48;;;;;;;;;;5034065;28;20178;-80
2022/02/19 09:05:01;;;;;;;5.32;1.77;;;;;;;;;;5016798;28;20186;-78
2022/02/19 09:07:28;;;;;;;6.75;2.25;;;;;;;;;;5032478;28;20199;-78
2022/02/19 09:09:54;;;;;;;21.27;2.80;;;;;;;;;;5026883;28;20206;-81
2022/02/19 09:12:21;;;;;;;6.15;2.28;;;;;;;;;;5036765;28;20186;-80
2022/02/19 09:14:47;;;;;;;9.32;2.40;;;;;;;;;;5039937;28;20174;-82
2022/02/19 09:17:13;;;;;;;5.05;1.50;;;;;;;;;;5042820;28;20205;-77
2022/02/19 09:19:39;;;;;;;9.18;2.15;;;;;;;;;;5015957;28;20186;-80
2022/02/19 09:22:06;;;;;;;2.30;1.67;;;;;;;;;;5028176;28;20202;-81
2022/02/19 09:24:32;;;;;;;6.15;1.95;;;;;;;;;;5039991;28;20660;-80
2022/02/19 09:27:01;;;;;;;5.45;2.28;;;;;;;;;;5025333;28;20178;-81
2022/02/19 09:29:27;;;;;;;5.32;1.83;;;;;;;;;;5021591;28;20206;-81
2022/02/19 09:31:53;;;;;;;6.43;2.28;;;;;;;;;;5018426;28;20191;-79
2022/02/19 09:34:21;;;;;;;10.73;1.75;;;;;;;;;;5025827;28;20186;-81
2022/02/19 09:36:47;;;;;;;7.15;1.95;;;;;;;;;;5051394;28;20225;-80
2022/02/19 09:39:14;;;;;;;6.82;1.75;;;;;;;;;;5026239;28;20225;-79
2022/02/19 09:41:42;;;;;;;7.45;2.22;;;;;;;;;;5032769;28;20174;-80
2022/02/19 09:44:08;;;;;;;4.07;1.58;;;;;;;;;;5009743;28;20247;-79
2022/02/19 09:46:34;;;;;;;8.18;2.08;;;;;;;;;;5017380;28;20193;-81
2022/02/19 09:49:02;;;;;;;8.20;1.77;;;;;;;;;;5020248;28;20175;-81
2022/02/19 09:51:28;;;;;;;4.68;1.77;;;;;;;;;;5042676;28;20197;-79
2022/02/19 09:53:54;;;;;;;5.05;1.52;;;;;;;;;;5022953;28;20252;-81
2022/02/19 09:56:24;;;;;;;4.32;1.50;;;;;;;;;;5016275;28;20210;-79
2022/02/19 09:58:50;;;;;;;6.18;1.58;;;;;;;;;;5017669;28;20179;-81
2022/02/19 10:01:20;;;;;;;6.13;2.90;;;;;;;;;;5022716;28;20190;-82
2022/02/19 10:03:47;;;;;;;6.30;2.05;;;;;;;;;;5034523;28;20214;-79
2022/02/19 10:06:14;;;;;;;8.80;2.00;;;;;;;;;;5026774;28;20209;-81
2022/02/19 10:08:40;;;;;;;4.05;1.48;;;;;;;;;;5034959;28;20244;-78
2022/02/19 10:11:06;;;;;;;6.30;1.65;;;;;;;;;;5011932;28;20293;-78
2022/02/19 10:13:33;;;;;;;3.22;1.67;;;;;;;;;;5019354;28;20189;-80
2022/02/19 10:16:00;;;;;;;8.55;1.48;;;;;;;;;;5018966;28;20186;-80
2022/02/19 10:18:26;;;;;;;3.65;2.15;;;;;;;;;;5033762;28;20179;-79
2022/02/19 10:20:53;;;;;;;8.30;1.25;;;;;;;;;;5021891;28;20548;-78
2022/02/19 10:23:19;;;;;;;5.60;1.90;;;;;;;;;;5050192;28;20193;-78
2022/02/19 10:26:04;;;;;;;5.95;2.08;;;;;;;;;;5046861;28;20190;-81
2022/02/19 10:28:30;;;;;;;7.68;1.40;;;;;;;;;;5028049;28;20641;-79
2022/02/19 10:30:56;;;;;;;6.72;1.67;;;;;;;;;;5012628;28;20202;-80
2022/02/19 10:33:26;;;;;;;6.68;2.33;;;;;;;;;;5025897;28;20260;-80
2022/02/19 10:35:53;;;;;;;8.57;2.05;;;;;;;;;;5011291;28;20170;-80
2022/02/19 10:38:20;;;;;;;2.53;1.25;;;;;;;;;;5033489;28;20226;-79
2022/02/19 10:40:53;;;;;;;4.05;1.95;;;;;;;;;;5032776;28;20190;-79
2022/02/19 10:43:22;;;;;;;3.67;1.98;;;;;;;;;;5023119;28;20179;-80
2022/02/19 10:45:55;;;;;;;9.63;1.67;;;;;;;;;;5012080;28;20211;-79
2022/02/19 10:48:24;;;;;;;3.83;1.30;;;;;;;;;;5033741;28;20198;-79
2022/02/19 10:50:50;;;;;;;4.00;1.42;;;;;;;;;;5059914;28;20295;-78
2022/02/19 10:53:38;;;;;;;6.13;1.80;;;;;;;;;;5046798;28;20182;-80
2022/02/19 10:56:14;;;;;;;8.18;2.05;;;;;;;;;;5035651;28;20196;-80
2022/02/19 10:58:59;;;;;;;3.55;1.30;;;;;;;;;;5027831;28;20411;-78
2022/02/19 11:01:26;;;;;;;4.15;1.95;;;;;;;;;;5034947;28;20258;-80
2022/02/19 11:03:52;;;;;;;6.68;1.55;;;;;;;;;;5033522;28;20543;-80
2022/02/19 11:06:22;;;;;;;7.65;1.70;;;;;;;;;;5050374;28;20194;-85
2022/02/19 11:08:57;;;;;;;3.10;1.33;;;;;;;;;;5029171;28;20412;-84
2022/02/19 11:11:23;;;;;;;9.18;1.65;;;;;;;;;;5053860;28;20228;-84
2022/02/19 11:13:57;;;;;;;3.88;1.75;;;;;;;;;;5028687;28;20241;-89
2022/02/19 11:16:32;;;;;;;3.05;1.40;;;;;;;;;;5043045;28;20506;-90
2022/02/19 11:18:59;;;;;;;10.38;2.50;;;;;;;;;;5044001;28;20274;-86
2022/02/19 11:21:26;;;;;;;3.00;1.30;;;;;;;;;;5039226;28;20249;-87
2022/02/19 11:23:54;;;;;;;4.07;2.17;;;;;;;;;;5034466;28;20179;-87
2022/02/19 11:26:21;;;;;;;3.08;1.80;;;;;;;;;;5019203;28;20250;-89
2022/02/19 11:28:48;;;;;;;5.10;1.52;;;;;;;;;;5012917;28;20199;-88
2022/02/19 11:31:14;;;;;;;6.97;2.00;;;;;;;;;;5013009;28;20286;-89
2022/02/19 11:33:44;;;;;;;7.63;1.77;;;;;;;;;;5027207;28;20174;-91
2022/02/19 11:36:11;;;;;;;3.67;1.58;;;;;;;;;;5036873;28;20202;-91
2022/02/19 11:38:48;;;;;;;4.18;2.17;;;;;;;;;;5022411;28;20225;-89
2022/02/19 11:41:16;;;;;;;3.17;1.75;;;;;;;;;;5040984;28;20248;-89
2022/02/19 11:43:48;;;;;;;3.58;1.33;;;;;;;;;;5043910;28;20206;-90
2022/02/19 11:46:14;;;;;;;3.78;1.20;;;;;;;;;;5032554;28;20543;-86
2022/02/19 11:48:47;;;;;;;10.20;1.80;;;;;;;;;;5021427;28;20182;-88
2022/02/19 11:51:16;;;;;;;9.02;1.50;;;;;;;;;;5014353;28;20213;-88
2022/02/19 11:53:44;;;;;;;5.43;1.67;;;;;;;;;;5024652;28;20201;-86
2022/02/19 11:56:11;;;;;;;2.35;1.05;;;;;;;;;;5023566;28;20211;-86
2022/02/19 11:58:51;;;;;;;4.00;1.45;;;;;;;;;;5042498;28;20191;-92
2022/02/19 12:01:17;;;;;;;3.60;1.45;;;;;;;;;;5046942;28;20183;-87
2022/02/19 12:03:43;;;;;;;3.25;1.23;;;;;;;;;;5021226;28;20183;-88
2022/02/19 12:06:18;;;;;;;7.53;1.60;;;;;;;;;;5056363;28;20189;-90
2022/02/19 12:08:47;;;;;;;2.90;1.15;;;;;;;;;;5038526;28;20708;-88
2022/02/19 12:11:13;;;;;;;3.25;1.25;;;;;;;;;;5041393;28;20531;-91
2022/02/19 12:13:44;;;;;;;2.78;1.23;;;;;;;;;;5038839;28;20190;-91
2022/02/19 12:16:29;;;;;;;2.33;1.25;;;;;;;;;;5036814;28;20250;-88
2022/02/19 12:18:57;;;;;;;4.95;1.55;;;;;;;;;;5033299;28;20186;-92
2022/02/19 12:21:36;;;;;;;3.75;1.10;;;;;;;;;;5026814;28;20170;-91
2022/02/19 12:24:16;;;;;;;8.15;1.80;;;;;;;;;;5021975;28;20735;-89
2022/02/19 12:26:59;;;;;;;4.07;1.35;;;;;;;;;;5037542;28;20670;-88
2022/02/19 12:29:32;;;;;;;1.98;1.35;;;;;;;;;;5038887;28;20273;-88
2022/02/19 12:32:02;;;;;;;3.15;1.55;;;;;;;;;;5027309;28;20218;-91
2022/02/19 12:34:29;;;;;;;5.75;1.38;;;;;;;;;;5026453;28;20191;-92
2022/02/19 12:36:58;;;;;;;2.33;1.40;;;;;;;;;;5026616;28;20273;-91
2022/02/19 12:39:25;;;;;;;4.97;1.45;;;;;;;;;;5023239;28;20257;-90
2022/02/19 12:41:58;;;;;;;5.03;2.22;;;;;;;;;;5023900;28;20175;-89
2022/02/19 12:44:24;;;;;;;6.75;1.50;;;;;;;;;;5039332;28;20174;-88
2022/02/19 12:46:52;;;;;;;4.07;1.40;;;;;;;;;;5025271;28;20183;-89
2022/02/19 12:49:19;;;;;;;3.83;1.60;;;;;;;;;;5018322;28;20206;-87
2022/02/19 12:51:53;;;;;;;6.40;1.70;;;;;;;;;;5034750;28;20175;-89
2022/02/19 12:54:38;;;;;;;5.00;1.15;;;;;;;;;;5037416;28;20574;-88
2022/02/19 12:57:07;;;;;;;5.95;1.40;;;;;;;;;;5038073;28;20209;-92
2022/02/19 12:59:39;;;;;;;7.00;1.30;;;;;;;;;;5020966;28;20183;-91
2022/02/19 13:02:06;;;;;;;6.78;1.45;;;;;;;;;;5033325;28;20276;-87
2022/02/19 13:04:32;;;;;;;4.60;1.27;;;;;;;;;;5028584;28;20186;-93
2022/02/19 13:06:58;;;;;;;3.15;1.92;;;;;;;;;;5037528;28;20221;-90
2022/02/19 13:09:26;;;;;;;4.82;1.77;;;;;;;;;;5037137;28;20185;-92
2022/02/19 13:11:53;;;;;;;4.60;1.33;;;;;;;;;;5045343;28;20177;-89
2022/02/19 13:14:20;;;;;;;4.90;1.35;;;;;;;;;;5030614;28;20178;-90
2022/02/19 13:17:05;;;;;;;4.40;1.88;;;;;;;;;;5022639;28;20206;-90
2022/02/19 13:19:32;;;;;;;3.55;1.25;;;;;;;;;;5020642;28;20197;-87
2022/02/19 13:22:04;;;;;;;3.47;1.20;;;;;;;;;;5021612;28;20195;-88
2022/02/19 13:24:39;;;;;;;3.95;1.48;;;;;;;;;;5045194;28;20173;-86
2022/02/19 13:27:13;;;;;;;4.38;1.20;;;;;;;;;;5039972;28;20192;-90
2022/02/19 13:29:39;;;;;;;5.15;1.73;;;;;;;;;;5039673;28;20194;-92
2022/02/19 13:32:05;;;;;;;5.32;1.58;;;;;;;;;;5023636;28;20190;-89
2022/02/19 13:34:32;;;;;;;5.22;1.05;;;;;;;;;;5038198;28;20175;-89
2022/02/19 13:36:58;;;;;;;5.93;1.65;;;;;;;;;;5019477;28;20202;-88
2022/02/19 13:39:34;;;;;;;2.38;1.23;;;;;;;;;;5056166;28;20251;-91
2022/02/19 13:42:02;;;;;;;4.70;1.30;;;;;;;;;;5013326;28;20242;-90
2022/02/19 13:44:34;;;;;;;4.45;1.38;;;;;;;;;;5041364;28;20198;-91
2022/02/19 13:47:05;;;;;;;3.95;1.30;;;;;;;;;;5016209;28;20186;-89
2022/02/19 13:49:38;;;;;;;4.13;1.77;;;;;;;;;;5030930;28;20193;-90
2022/02/19 13:52:04;;;;;;;3.83;1.23;;;;;;;;;;5033488;28;20209;-90
2022/02/19 13:54:39;;;;;;;9.73;2.08;;;;;;;;;;5024106;28;20370;-91
2022/02/19 13:57:37;;;;;;;6.80;2.08;;;;;;;;;;5021514;28;20273;-86
2022/02/19 14:00:09;;;;;;;5.93;1.55;;;;;;;;;;4946067;29;20200;-91
2022/02/19 14:02:36;;;;;;;3.80;1.20;;;;;;;;;;4951359;29;20188;-88
2022/02/19 14:05:19;;;;;;;4.53;1.88;;;;;;;;;;4959077;29;20312;-93
2022/02/19 14:07:52;;;;;;;3.92;1.30;;;;;;;;;;4954332;29;20188;-89
2022/02/19 14:10:18;;;;;;;5.03;1.55;;;;;;;;;;4964112;28;20284;-91
2022/02/19 14:12:44;;;;;;;5.25;1.50;;;;;;;;;;4936122;29;20315;-86
2022/02/19 14:15:10;;;;;;;2.45;1.33;;;;;;;;;;4945439;29;20203;-90
2022/02/19 14:17:38;;;;;;;4.50;1.38;;;;;;;;;;4946282;29;20240;-88
2022/02/19 14:20:09;;;;;;;4.60;1.30;;;;;;;;;;4938340;29;20219;-88
2022/02/19 14:22:39;;;;;;;4.38;1.30;;;;;;;;;;4938761;29;20207;-84
2022/02/19 14:25:08;;;;;;;4.68;1.48;;;;;;;;;;4959218;29;20278;-89
2022/02/19 14:27:53;;;;;;;5.35;1.48;;;;;;;;;;4949163;29;20183;-90
2022/02/19 14:30:21;;;;;;;4.07;1.50;;;;;;;;;;4949826;29;20213;-87
2022/02/19 14:32:48;;;;;;;4.75;1.65;;;;;;;;;;4972541;28;20269;-93
2022/02/19 14:35:14;;;;;;;3.20;1.42;;;;;;;;;;4968855;28;20192;-89
2022/02/19 14:37:40;;;;;;;2.83;1.35;;;;;;;;;;5028942;28;20188;-91
2022/02/19 14:40:06;;;;;;;5.45;1.90;;;;;;;;;;5036959;28;20192;-89
2022/02/19 14:42:35;;;;;;;4.43;1.40;;;;;;;;;;5025818;28;20190;-92
2022/02/19 14:45:07;;;;;;;3.15;1.20;;;;;;;;;;5024894;28;20191;-87
2022/02/19 14:47:34;;;;;;;4.95;2.05;;;;;;;;;;5026815;28;20183;-87
2022/02/19 14:50:00;;;;;;;6.05;1.60;;;;;;;;;;5025297;28;20214;-87
2022/02/19 14:52:26;;;;;;;3.40;1.70;;;;;;;;;;5050044;28;20183;-86
2022/02/19 14:54:53;;;;;;;5.07;1.73;;;;;;;;;;5027872;28;20457;-89